Pagrindinis puslapis
METAR-TAF:

METAR-TAF

Oro uostai :

Landžou, Kinija

platuma: 36-02N, ilguma: 103-52E, Aukštis: 1518 m

Dabartinis oras

Ataskaita buvo paskelbta 36 minutes, ne 06:00 UTC
Vėjas 14 kt iš Rytų/Šiaurės Rytų su gūsio iki 25 kt, svyruoja nuo Šiaurės Rytų ir Rytų
Temperatūra 11°C
Drėgmė 19%
Slėgis 1025 hPa
Matomumas: 6000 m

METAR: ZLLL 100600Z 07007G13MPS 040V100 6000 NSC 11/M12 Q1025 BECMG TL0640 BLSA

Laikas: 14:36 (06:36 UTC)

Prognozė

Ataskaita buvo paskelbta 3 valandos ir 32 minutes, ne 03:04 UTC
Prognozė galioja nuo 10 metu 06 UTC su 11 metu 06 UTC
Vėjas 16 kt iš Rytų/Šiaurės Rytų
Matomumas: 4000 m
Smėlis
Tapsmas
nuo 10 metu 13 UTC su 10 metu 14 UTC
Vėjas 6 kt iš Šiaurės

TAF: ZLLL 100304Z 1006/1106 06008MPS 4000 SA NSC TX13/1008Z TNM04/1022Z BECMG 1013/1014 35003MPS

Orai ataskaitas ir orų prognozės (METAR, TAF).

turimą stotys yra geltonos ir raudonos taškus žemėlapyje.

Perkelti pele per norėdami pamatyti stoties vardą.

Tada spustelėkite, norėdami matyti oro stebėjimo ir prognozės.

Norėdami pakeisti žemėlapį: spustelėkite ant žalios mygtukų su juodo kryžiaus žemyn,; žalią mygtuką su brūkšneliu, jei norite nutolinti; arba žalių rodyklių gretimoms žemėlapius.


METAR-TAF: